createdAt,value
2023-02-19T00:59:20.444Z,8.45
2023-02-19T01:04:23.784Z,9.00
2023-02-19T01:09:26.365Z,11.65
2023-02-19T01:14:30.409Z,12.40
2023-02-19T01:19:32.870Z,14.88
2023-02-19T01:24:35.784Z,10.35
2023-02-19T01:29:40.196Z,14.53
2023-02-19T01:34:42.737Z,6.50
2023-02-19T01:39:45.081Z,7.77
2023-02-19T01:45:27.412Z,10.35
2023-02-19T01:50:35.123Z,10.60
2023-02-19T01:55:39.013Z,7.60
2023-02-19T02:00:43.305Z,13.93
2023-02-19T02:05:56.163Z,10.97
2023-02-19T02:10:58.844Z,8.60
2023-02-19T02:16:22.416Z,7.78
2023-02-19T02:21:49.522Z,11.63
2023-02-19T02:27:16.220Z,7.93
2023-02-19T02:32:26.933Z,6.23
2023-02-19T02:37:35.321Z,11.75
2023-02-19T02:42:40.424Z,9.93
2023-02-19T02:47:53.413Z,6.50
2023-02-19T02:53:01.624Z,10.82
2023-02-19T02:58:06.018Z,10.80
2023-02-19T03:03:10.086Z,8.98
2023-02-19T03:08:18.172Z,9.18
2023-02-19T03:13:28.634Z,9.20
2023-02-19T03:18:37.669Z,9.15
2023-02-19T03:23:41.359Z,7.53
2023-02-19T03:28:46.968Z,6.45
2023-02-19T03:33:56.055Z,7.20
2023-02-19T03:39:03.388Z,7.77
2023-02-19T03:44:16.459Z,5.30
2023-02-19T03:49:29.977Z,9.27
2023-02-19T03:54:40.653Z,12.82
2023-02-19T03:59:50.638Z,8.10
2023-02-19T04:05:05.518Z,8.97
2023-02-19T04:10:09.742Z,6.18
2023-02-19T04:15:26.450Z,9.37
2023-02-19T04:20:35.755Z,6.20
2023-02-19T04:25:43.948Z,7.95
2023-02-19T04:30:46.421Z,6.73
2023-02-19T04:35:50.080Z,7.43
2023-02-19T04:40:52.326Z,11.13
2023-02-19T04:45:54.681Z,7.53
2023-02-19T04:50:58.470Z,10.52
2023-02-19T04:56:07.682Z,9.00
2023-02-19T05:01:11.455Z,7.32
2023-02-19T05:06:15.519Z,9.90
2023-02-19T05:11:17.997Z,6.78
2023-02-19T05:16:20.173Z,5.07
2023-02-19T05:21:23.874Z,9.37
2023-02-19T05:26:26.000Z,6.57
2023-02-19T05:31:28.901Z,10.80
2023-02-19T05:36:33.258Z,18.02
2023-02-19T05:41:35.532Z,33.03
2023-02-19T05:46:37.958Z,30.87
2023-02-19T05:51:41.508Z,14.48
2023-02-19T05:56:43.680Z,12.90
2023-02-19T06:01:46.773Z,9.27
2023-02-19T06:06:50.481Z,10.63
2023-02-19T06:11:52.738Z,9.77
2023-02-19T06:16:54.946Z,11.65
2023-02-19T06:21:58.514Z,9.63
2023-02-19T06:27:00.806Z,15.70
2023-02-19T06:32:03.088Z,12.23
2023-02-19T06:37:06.889Z,7.73
2023-02-19T06:42:09.244Z,9.07
2023-02-19T06:47:11.599Z,11.30
2023-02-19T06:52:15.195Z,9.93
2023-02-19T06:57:17.449Z,9.18
2023-02-19T07:02:19.756Z,12.40
2023-02-19T07:07:23.369Z,8.98
2023-02-19T07:12:25.652Z,12.50
2023-02-19T07:17:27.956Z,9.18
2023-02-19T07:22:31.688Z,11.75
2023-02-19T07:27:34.035Z,10.60
2023-02-19T07:32:36.360Z,11.90
2023-02-19T07:37:41.338Z,10.57
2023-02-19T07:42:43.658Z,14.40
2023-02-19T07:47:45.957Z,11.82
2023-02-19T07:52:49.632Z,11.70
2023-02-19T07:57:51.963Z,8.48
2023-02-19T08:02:54.326Z,11.87
2023-02-19T08:07:58.630Z,14.23
2023-02-19T08:13:02.122Z,16.20
2023-02-19T08:18:04.606Z,14.40
2023-02-19T08:23:08.804Z,11.90
2023-02-19T08:28:12.761Z,17.40
2023-02-19T08:33:18.156Z,12.32
2023-02-19T08:38:22.082Z,15.30
2023-02-19T08:43:24.534Z,14.37
2023-02-19T08:48:27.434Z,12.43
2023-02-19T08:53:32.596Z,12.60
2023-02-19T08:58:34.939Z,14.02
2023-02-19T09:03:37.413Z,17.13
2023-02-19T09:08:41.508Z,13.53
2023-02-19T09:13:44.402Z,15.15
2023-02-19T09:18:46.807Z,16.57
2023-02-19T09:23:50.625Z,16.70
2023-02-19T09:28:53.100Z,16.75
2023-02-19T09:33:55.436Z,11.13
2023-02-19T09:38:59.108Z,9.93
2023-02-19T09:44:04.673Z,9.13
2023-02-19T09:49:14.727Z,17.35
2023-02-19T09:54:24.826Z,11.80
2023-02-19T09:59:32.821Z,9.23
2023-02-19T10:04:35.410Z,9.40
2023-02-19T10:09:39.417Z,6.90
2023-02-19T10:14:49.896Z,9.35
2023-02-19T10:19:53.758Z,18.58
2023-02-19T10:24:58.559Z,9.70
2023-02-19T10:30:01.742Z,13.38
2023-02-19T10:35:11.018Z,8.87
2023-02-19T10:40:19.718Z,12.43
2023-02-19T10:45:27.387Z,24.20
2023-02-19T10:50:35.562Z,33.53
2023-02-19T10:55:39.627Z,7.15
2023-02-19T11:00:41.908Z,14.23
2023-02-19T11:05:57.403Z,7.60
2023-02-19T11:11:01.079Z,28.95
2023-02-19T11:16:05.120Z,16.63
2023-02-19T11:21:22.508Z,6.32
2023-02-19T11:26:31.215Z,26.17
2023-02-19T11:31:34.489Z,9.65
2023-02-19T11:36:38.083Z,5.88
2023-02-19T11:42:11.578Z,21.03
2023-02-19T11:47:55.739Z,10.52
2023-02-19T11:53:17.059Z,9.50
2023-02-19T11:59:01.551Z,22.92
2023-02-19T12:04:39.845Z,9.13
2023-02-19T12:10:02.418Z,9.63
2023-02-19T12:15:46.760Z,12.13
2023-02-19T12:21:06.980Z,16.43
2023-02-19T12:26:22.035Z,7.10
2023-02-19T12:32:09.243Z,8.38
2023-02-19T12:37:29.504Z,11.07
2023-02-19T12:42:54.152Z,9.80
2023-02-19T12:48:06.424Z,8.63
2023-02-19T12:53:20.494Z,6.20
2023-02-19T12:58:35.494Z,20.40
2023-02-19T13:03:48.964Z,18.73
2023-02-19T13:09:07.293Z,11.43
2023-02-19T13:14:23.295Z,7.30
2023-02-19T13:19:27.244Z,8.18
2023-02-19T13:24:36.234Z,22.77
2023-02-19T13:30:02.446Z,80.90
2023-02-19T13:35:26.322Z,10.82
2023-02-19T13:40:34.097Z,7.43
2023-02-19T13:45:43.322Z,11.88
2023-02-19T13:50:47.682Z,12.20
2023-02-19T13:55:52.592Z,6.00
2023-02-19T14:00:55.554Z,11.52
2023-02-19T14:06:03.976Z,14.50
2023-02-19T14:11:07.305Z,11.88
2023-02-19T14:16:31.145Z,7.40
2023-02-19T14:21:40.683Z,10.23
2023-02-19T14:26:46.168Z,6.53
2023-02-19T14:31:49.356Z,13.97
2023-02-19T14:36:56.300Z,23.40
2023-02-19T14:42:02.640Z,8.45
2023-02-19T14:47:07.717Z,5.37
2023-02-19T14:52:20.424Z,6.55
2023-02-19T14:57:30.328Z,7.37
2023-02-19T15:02:41.561Z,4.57
2023-02-19T15:07:46.341Z,5.82
2023-02-19T15:12:54.750Z,8.17
2023-02-19T15:18:00.349Z,13.15
2023-02-19T15:23:08.298Z,7.13
2023-02-19T15:28:29.600Z,7.13
2023-02-19T15:33:32.943Z,5.25
2023-02-19T15:38:37.203Z,4.40
2023-02-19T15:43:46.852Z,8.63
2023-02-19T15:48:56.332Z,9.60
2023-02-19T15:54:09.548Z,7.70
2023-02-19T15:59:24.484Z,15.18
2023-02-19T16:04:28.807Z,15.93
2023-02-19T16:09:38.369Z,24.67
2023-02-19T16:14:40.759Z,24.57
2023-02-19T16:19:50.533Z,10.30
2023-02-19T16:24:57.357Z,18.63
2023-02-19T16:30:07.430Z,18.10
2023-02-19T16:35:42.069Z,13.27
2023-02-19T16:41:12.418Z,13.80
2023-02-19T16:46:15.105Z,13.73
2023-02-19T16:51:25.291Z,15.95
2023-02-19T16:56:29.481Z,15.23
2023-02-19T17:01:32.480Z,15.93
2023-02-19T17:06:35.668Z,11.77
2023-02-19T17:11:39.595Z,13.32
2023-02-19T17:16:41.898Z,14.57
2023-02-19T17:21:45.988Z,13.97
2023-02-19T17:26:49.682Z,13.80
2023-02-19T17:31:52.249Z,11.77
2023-02-19T17:36:54.622Z,27.60
2023-02-19T17:41:58.381Z,45.25
2023-02-19T17:47:01.574Z,74.43
2023-02-19T17:52:04.198Z,59.20
2023-02-19T17:57:07.836Z,74.57
2023-02-19T18:02:10.022Z,61.25
2023-02-19T18:07:12.371Z,34.20
2023-02-19T18:12:16.128Z,16.33
2023-02-19T18:17:18.371Z,26.52
2023-02-19T18:22:21.112Z,17.50
2023-02-19T18:27:25.018Z,17.00
2023-02-19T18:32:27.634Z,15.52
2023-02-19T18:37:30.943Z,28.80
2023-02-19T18:42:34.957Z,19.20
2023-02-19T18:47:37.149Z,16.63
2023-02-19T18:52:39.415Z,22.95
2023-02-19T18:57:43.256Z,26.25
2023-02-19T19:02:49.755Z,24.87
2023-02-19T19:07:54.103Z,30.05
2023-02-19T19:12:58.001Z,16.63
2023-02-19T19:18:00.327Z,12.38
2023-02-19T19:23:02.692Z,10.30
2023-02-19T19:28:06.499Z,9.13
2023-02-19T19:33:09.522Z,11.63
2023-02-19T19:38:12.025Z,12.13
2023-02-19T19:43:15.857Z,12.18
2023-02-19T19:48:19.525Z,7.53
2023-02-19T19:53:21.956Z,11.90
2023-02-19T19:58:25.742Z,13.77
2023-02-19T20:03:28.267Z,11.37
2023-02-19T20:08:31.141Z,9.93
2023-02-19T20:13:35.779Z,10.40
2023-02-19T20:18:38.332Z,10.13
2023-02-19T20:23:40.856Z,9.32
2023-02-19T20:28:44.517Z,11.93
2023-02-19T20:33:47.777Z,12.45
2023-02-19T20:38:50.319Z,14.30
2023-02-19T20:43:53.911Z,20.37
2023-02-19T20:48:56.537Z,15.30
2023-02-19T20:53:59.024Z,9.70
2023-02-19T20:59:02.791Z,13.38
2023-02-19T21:04:05.622Z,14.77
2023-02-19T21:09:08.293Z,19.50
2023-02-19T21:14:12.313Z,14.55
2023-02-19T21:19:14.620Z,12.63
2023-02-19T21:24:17.165Z,9.10
2023-02-19T21:29:22.520Z,8.57
2023-02-19T21:34:27.913Z,16.37
2023-02-19T21:39:30.496Z,12.27
2023-02-19T21:44:34.343Z,13.33
2023-02-19T21:49:36.680Z,14.00
2023-02-19T21:54:39.032Z,8.90
2023-02-19T21:59:42.836Z,10.03
2023-02-19T22:04:45.453Z,11.85
2023-02-19T22:09:49.746Z,11.93
2023-02-19T22:14:53.557Z,10.98
2023-02-19T22:19:55.903Z,8.90
2023-02-19T22:24:58.261Z,11.23
2023-02-19T22:30:01.995Z,9.55
2023-02-19T22:35:04.770Z,8.87
2023-02-19T22:40:08.367Z,9.25
2023-02-19T22:45:13.312Z,6.80
2023-02-19T22:50:23.323Z,11.33
2023-02-19T22:55:25.610Z,12.05
2023-02-19T23:00:29.286Z,12.67
2023-02-19T23:05:31.587Z,5.78
2023-02-19T23:10:34.014Z,6.93
2023-02-19T23:15:37.801Z,8.80
2023-02-19T23:20:40.272Z,9.05
2023-02-19T23:25:42.776Z,6.30
2023-02-19T23:30:46.831Z,9.85
2023-02-19T23:35:49.289Z,10.25
2023-02-19T23:40:51.638Z,10.53
2023-02-19T23:45:55.336Z,7.60
2023-02-19T23:50:57.822Z,7.50
2023-02-19T23:56:00.339Z,9.73
